createdAt,value
2023-01-09T00:01:43.165Z,4.43
2023-01-09T00:04:13.483Z,4.37
2023-01-09T00:06:43.632Z,5.37
2023-01-09T00:09:12.727Z,5.30
2023-01-09T00:11:41.285Z,5.17
2023-01-09T00:14:11.026Z,5.53
2023-01-09T00:16:39.823Z,4.07
2023-01-09T00:19:08.398Z,4.27
2023-01-09T00:21:39.576Z,5.20
2023-01-09T00:24:09.047Z,6.23
2023-01-09T00:26:37.641Z,5.97
2023-01-09T00:29:06.201Z,4.10
2023-01-09T00:31:34.776Z,3.37
2023-01-09T00:34:07.027Z,5.43
2023-01-09T00:36:35.903Z,3.77
2023-01-09T00:39:06.615Z,5.60
2023-01-09T00:41:39.260Z,5.20
2023-01-09T00:44:14.707Z,4.87
2023-01-09T00:46:46.447Z,3.90
2023-01-09T00:49:16.953Z,6.37
2023-01-09T00:51:45.542Z,4.07
2023-01-09T00:54:19.335Z,5.83
2023-01-09T00:56:48.362Z,4.00
2023-01-09T00:59:16.930Z,5.73
2023-01-09T01:01:45.539Z,4.93
2023-01-09T01:04:31.818Z,4.10
2023-01-09T01:07:17.801Z,5.23
2023-01-09T01:09:49.296Z,7.00
2023-01-09T01:12:18.186Z,6.00
2023-01-09T01:14:46.690Z,4.27
2023-01-09T01:17:15.215Z,5.97
2023-01-09T01:19:43.670Z,4.23
2023-01-09T01:22:12.252Z,3.10
2023-01-09T01:24:40.792Z,4.23
2023-01-09T01:27:10.789Z,5.60
2023-01-09T01:29:39.298Z,3.77
2023-01-09T01:32:08.178Z,3.90
2023-01-09T01:34:37.016Z,3.27
2023-01-09T01:37:05.525Z,3.83
2023-01-09T01:39:34.041Z,3.87
2023-01-09T01:42:04.187Z,4.73
2023-01-09T01:45:00.802Z,5.07
2023-01-09T01:47:41.859Z,5.53
2023-01-09T01:50:15.229Z,6.57
2023-01-09T01:52:46.129Z,7.17
2023-01-09T01:55:14.843Z,5.70
2023-01-09T01:57:47.245Z,6.33
2023-01-09T02:00:22.852Z,6.37
2023-01-09T02:02:51.461Z,6.00
2023-01-09T02:05:21.048Z,7.17
2023-01-09T02:07:49.841Z,6.73
2023-01-09T02:10:19.139Z,5.30
2023-01-09T02:12:47.636Z,5.93
2023-01-09T02:15:16.929Z,6.17
2023-01-09T02:18:03.451Z,5.90
2023-01-09T02:20:47.790Z,4.60
2023-01-09T02:23:49.396Z,5.00
2023-01-09T02:27:08.747Z,7.60
2023-01-09T02:30:15.782Z,5.27
2023-01-09T02:32:56.541Z,3.63
2023-01-09T02:35:36.873Z,5.27
2023-01-09T02:38:16.835Z,7.50
2023-01-09T02:40:53.838Z,9.07
2023-01-09T02:43:22.713Z,6.27
2023-01-09T02:45:51.427Z,4.97
2023-01-09T02:48:21.611Z,5.03
2023-01-09T02:51:00.129Z,5.67
2023-01-09T02:53:53.277Z,6.20
2023-01-09T02:56:38.980Z,7.77
2023-01-09T02:59:20.540Z,9.07
2023-01-09T03:02:02.129Z,7.90
2023-01-09T03:04:44.644Z,8.20
2023-01-09T03:07:20.327Z,10.63
2023-01-09T03:09:51.081Z,11.50
2023-01-09T03:12:24.780Z,10.57
2023-01-09T03:14:57.505Z,11.87
2023-01-09T03:17:29.519Z,14.60
2023-01-09T03:20:02.350Z,12.13
2023-01-09T03:22:31.159Z,14.93
2023-01-09T03:24:59.650Z,12.57
2023-01-09T03:27:28.333Z,10.80
2023-01-09T03:29:56.901Z,11.97
2023-01-09T03:32:27.837Z,8.43
2023-01-09T03:34:56.336Z,9.37
2023-01-09T03:37:26.616Z,9.27
2023-01-09T03:39:55.058Z,8.67
2023-01-09T03:42:23.559Z,6.73
2023-01-09T03:44:52.288Z,9.57
2023-01-09T03:47:20.736Z,9.20
2023-01-09T03:49:49.274Z,9.10
2023-01-09T03:52:17.851Z,11.80
2023-01-09T03:54:47.990Z,14.27
2023-01-09T03:57:16.648Z,11.33
2023-01-09T03:59:45.094Z,13.23
2023-01-09T04:02:13.782Z,13.07
2023-01-09T04:04:42.516Z,13.03
2023-01-09T04:07:11.148Z,13.63
2023-01-09T04:09:39.617Z,13.70
2023-01-09T04:12:09.778Z,15.00
2023-01-09T04:14:38.285Z,15.53
2023-01-09T04:17:07.049Z,17.00
2023-01-09T04:19:35.520Z,18.73
2023-01-09T04:22:03.997Z,18.90
2023-01-09T04:24:32.524Z,15.57
2023-01-09T04:27:01.375Z,15.30
2023-01-09T04:29:31.275Z,14.70
2023-01-09T04:31:59.736Z,12.07
2023-01-09T04:34:28.487Z,11.90
2023-01-09T04:36:57.405Z,15.07
2023-01-09T04:39:26.077Z,16.73
2023-01-09T04:41:54.615Z,16.60
2023-01-09T04:44:26.409Z,19.33
2023-01-09T04:46:58.967Z,15.97
2023-01-09T04:49:27.680Z,17.20
2023-01-09T04:51:56.688Z,15.07
2023-01-09T04:54:25.129Z,14.17
2023-01-09T04:56:53.656Z,10.20
2023-01-09T04:59:22.142Z,15.37
2023-01-09T05:01:52.267Z,18.23
2023-01-09T05:04:22.418Z,17.70
2023-01-09T05:06:51.271Z,17.70
2023-01-09T05:09:19.828Z,16.47
2023-01-09T05:11:48.375Z,20.57
2023-01-09T05:14:16.850Z,17.87
2023-01-09T05:16:45.663Z,12.60
2023-01-09T05:19:15.604Z,17.10
2023-01-09T05:21:45.506Z,17.27
2023-01-09T05:24:13.950Z,13.17
2023-01-09T05:26:42.439Z,17.37
2023-01-09T05:29:12.004Z,13.87
2023-01-09T05:31:40.563Z,17.03
2023-01-09T05:34:09.847Z,13.67
2023-01-09T05:36:38.406Z,19.13
2023-01-09T05:39:08.333Z,12.00
2023-01-09T05:41:36.857Z,12.50
2023-01-09T05:44:05.938Z,9.57
2023-01-09T05:46:34.420Z,14.60
2023-01-09T05:49:02.941Z,8.80
2023-01-09T05:51:32.279Z,14.53
2023-01-09T05:54:02.220Z,15.50
2023-01-09T05:56:32.210Z,11.67
2023-01-09T05:59:00.722Z,13.10
2023-01-09T06:01:29.276Z,10.07
2023-01-09T06:03:57.873Z,8.40
2023-01-09T06:06:26.411Z,13.47
2023-01-09T06:08:55.413Z,9.87
2023-01-09T06:11:23.867Z,12.00
2023-01-09T06:13:56.431Z,11.60
2023-01-09T06:16:25.116Z,8.97
2023-01-09T06:18:53.693Z,12.20
2023-01-09T06:21:22.282Z,13.50
2023-01-09T06:23:52.126Z,9.13
2023-01-09T06:26:20.711Z,7.77
2023-01-09T06:28:49.208Z,11.33
2023-01-09T06:31:19.556Z,14.30
2023-01-09T06:33:48.056Z,9.33
2023-01-09T06:36:16.667Z,10.10
2023-01-09T06:38:45.243Z,10.30
2023-01-09T06:41:13.956Z,9.63
2023-01-09T06:43:42.445Z,14.10
2023-01-09T06:46:11.525Z,10.07
2023-01-09T06:48:41.458Z,16.40
2023-01-09T06:51:10.004Z,10.13
2023-01-09T06:53:39.282Z,8.60
2023-01-09T06:56:08.401Z,11.00
2023-01-09T06:58:36.859Z,9.37
2023-01-09T07:01:05.616Z,8.83
2023-01-09T07:03:34.206Z,8.77
2023-01-09T07:06:04.858Z,10.77
2023-01-09T07:08:34.389Z,13.10
2023-01-09T07:11:02.963Z,15.17
2023-01-09T07:13:31.493Z,13.83
2023-01-09T07:15:59.959Z,15.47
2023-01-09T07:18:28.459Z,13.20
2023-01-09T07:20:57.317Z,13.93
2023-01-09T07:23:27.626Z,9.17
2023-01-09T07:25:56.298Z,12.93
2023-01-09T07:28:24.801Z,16.27
2023-01-09T07:30:53.431Z,15.90
2023-01-09T07:33:21.954Z,11.03
2023-01-09T07:35:51.973Z,12.97
2023-01-09T07:38:20.762Z,10.73
2023-01-09T07:40:50.756Z,14.10
2023-01-09T07:43:19.311Z,13.57
2023-01-09T07:45:48.414Z,14.87
2023-01-09T07:48:17.019Z,11.53
2023-01-09T07:50:45.555Z,8.83
2023-01-09T07:53:14.433Z,13.97
2023-01-09T07:55:44.403Z,11.20
2023-01-09T07:58:15.052Z,10.60
2023-01-09T08:00:43.581Z,9.87
2023-01-09T08:03:12.605Z,12.03
2023-01-09T08:05:41.193Z,14.60
2023-01-09T08:08:09.835Z,17.60
2023-01-09T08:10:38.502Z,15.83
2023-01-09T08:13:07.321Z,11.40
2023-01-09T08:15:37.243Z,13.93
2023-01-09T08:18:05.981Z,14.40
2023-01-09T08:20:34.511Z,7.40
2023-01-09T08:23:04.386Z,8.27
2023-01-09T08:25:33.586Z,7.23
2023-01-09T08:28:03.002Z,9.40
2023-01-09T08:30:32.988Z,10.67
2023-01-09T08:33:03.624Z,7.70
2023-01-09T08:35:32.276Z,8.77
2023-01-09T08:38:00.868Z,10.90
2023-01-09T08:40:29.438Z,8.50
2023-01-09T08:43:15.875Z,6.00
2023-01-09T08:46:02.090Z,10.43
2023-01-09T08:48:32.114Z,12.13
2023-01-09T08:51:01.147Z,9.37
2023-01-09T08:53:30.599Z,10.03
2023-01-09T08:55:59.315Z,10.60
2023-01-09T08:58:27.843Z,13.20
2023-01-09T09:00:56.728Z,11.20
2023-01-09T09:03:25.308Z,8.00
2023-01-09T09:05:55.495Z,9.37
2023-01-09T09:08:24.455Z,10.07
2023-01-09T09:10:53.114Z,8.33
2023-01-09T09:13:21.677Z,9.43
2023-01-09T09:15:51.629Z,11.83
2023-01-09T09:18:20.212Z,7.80
2023-01-09T09:20:49.068Z,8.60
2023-01-09T09:23:19.245Z,10.93
2023-01-09T09:25:48.292Z,10.77
2023-01-09T09:28:17.055Z,11.20
2023-01-09T09:30:45.911Z,10.97
2023-01-09T09:33:14.554Z,11.47
2023-01-09T09:35:43.370Z,8.30
2023-01-09T09:38:13.477Z,11.87
2023-01-09T09:41:00.176Z,8.07
2023-01-09T09:44:16.664Z,13.97
2023-01-09T09:46:52.084Z,9.33
2023-01-09T09:49:26.491Z,15.07
2023-01-09T09:52:03.969Z,10.60
2023-01-09T09:54:38.440Z,12.80
2023-01-09T09:57:14.374Z,14.33
2023-01-09T09:59:44.783Z,14.03
2023-01-09T10:02:27.303Z,14.53
2023-01-09T10:05:03.620Z,11.17
2023-01-09T10:07:39.874Z,8.53
2023-01-09T10:10:16.144Z,12.40
2023-01-09T10:12:52.560Z,13.03
2023-01-09T10:15:30.176Z,12.30
2023-01-09T10:18:10.116Z,13.30
2023-01-09T10:20:56.688Z,13.67
2023-01-09T10:24:01.180Z,10.67
2023-01-09T10:26:36.004Z,12.20
2023-01-09T10:29:31.208Z,10.60
2023-01-09T10:32:14.701Z,8.40
2023-01-09T10:34:53.158Z,9.20
2023-01-09T10:37:24.488Z,9.50
2023-01-09T10:39:58.941Z,11.83
2023-01-09T10:42:33.669Z,6.70
2023-01-09T10:45:08.842Z,9.20
2023-01-09T10:47:39.841Z,7.70
2023-01-09T10:50:21.590Z,9.17
2023-01-09T10:52:53.482Z,26.90
2023-01-09T10:55:32.349Z,6.50
2023-01-09T10:58:04.250Z,6.83
2023-01-09T11:00:35.401Z,10.07
2023-01-09T11:03:03.937Z,11.03
2023-01-09T11:05:33.090Z,7.83
2023-01-09T11:08:07.773Z,9.27
2023-01-09T11:10:48.299Z,8.63
2023-01-09T11:13:21.875Z,9.63
2023-01-09T11:16:04.618Z,8.80
2023-01-09T11:18:34.283Z,12.47
2023-01-09T11:21:32.851Z,10.27
2023-01-09T11:24:28.004Z,9.20
2023-01-09T11:27:27.276Z,9.57
2023-01-09T11:30:20.264Z,7.57
2023-01-09T11:32:52.983Z,10.37
2023-01-09T11:35:33.893Z,11.70
2023-01-09T11:38:07.338Z,10.30
2023-01-09T11:40:46.543Z,8.57
2023-01-09T11:43:19.612Z,7.97
2023-01-09T11:46:00.522Z,11.03
2023-01-09T11:48:35.394Z,12.27
2023-01-09T11:51:06.937Z,12.27
2023-01-09T11:53:54.862Z,5.73
2023-01-09T11:56:24.081Z,10.90
2023-01-09T11:58:53.258Z,5.67
2023-01-09T12:01:52.331Z,7.67
2023-01-09T12:04:28.990Z,9.90
2023-01-09T12:07:42.013Z,11.97
2023-01-09T12:10:29.960Z,6.97
2023-01-09T12:13:06.297Z,9.33
2023-01-09T12:15:42.935Z,14.13
2023-01-09T12:18:26.634Z,6.07
2023-01-09T12:21:15.323Z,9.70
2023-01-09T12:23:57.559Z,8.43
2023-01-09T12:26:32.805Z,10.10
2023-01-09T12:29:30.959Z,5.57
2023-01-09T12:32:29.623Z,6.93
2023-01-09T12:35:04.989Z,7.83
2023-01-09T12:38:15.498Z,5.77
2023-01-09T12:41:07.009Z,13.20
2023-01-09T12:43:49.247Z,8.13
2023-01-09T12:46:20.687Z,4.63
2023-01-09T12:49:16.833Z,8.40
2023-01-09T12:51:51.353Z,6.37
2023-01-09T12:54:30.520Z,7.20
2023-01-09T12:57:04.812Z,7.33
2023-01-09T12:59:39.093Z,13.53
2023-01-09T13:02:17.288Z,7.30
2023-01-09T13:04:53.353Z,8.47
2023-01-09T13:07:26.004Z,6.30
2023-01-09T13:10:01.787Z,10.60
2023-01-09T13:12:37.156Z,9.80
2023-01-09T13:15:09.148Z,10.67
2023-01-09T13:17:43.071Z,7.40
2023-01-09T13:20:22.715Z,8.93
2023-01-09T13:22:52.937Z,6.80
2023-01-09T13:25:39.528Z,6.97
2023-01-09T13:28:14.795Z,7.63
2023-01-09T13:31:16.102Z,8.53
2023-01-09T13:33:47.407Z,7.77
2023-01-09T13:36:26.018Z,9.37
2023-01-09T13:38:56.676Z,8.97
2023-01-09T13:41:45.981Z,9.27
2023-01-09T13:44:28.867Z,8.43
2023-01-09T13:46:59.308Z,10.43
2023-01-09T13:49:49.929Z,9.13
2023-01-09T13:52:36.932Z,7.90
2023-01-09T13:55:38.537Z,8.00
2023-01-09T13:58:23.899Z,10.03
2023-01-09T14:01:03.466Z,7.77
2023-01-09T14:03:35.346Z,6.80
2023-01-09T14:06:21.059Z,9.27
2023-01-09T14:08:52.116Z,15.20
2023-01-09T14:11:23.376Z,17.70
2023-01-09T14:14:06.182Z,13.07
2023-01-09T14:16:37.061Z,9.67
2023-01-09T14:19:22.296Z,10.17
2023-01-09T14:21:54.718Z,10.77
2023-01-09T14:24:30.052Z,12.10
2023-01-09T14:27:04.345Z,10.10
2023-01-09T14:29:45.881Z,10.53
2023-01-09T14:32:44.477Z,7.10
2023-01-09T14:35:18.973Z,8.17
2023-01-09T14:37:56.630Z,9.33
2023-01-09T14:40:26.012Z,10.53
2023-01-09T14:42:56.403Z,11.33
2023-01-09T14:45:28.596Z,11.37
2023-01-09T14:48:00.467Z,9.43
2023-01-09T14:50:36.076Z,9.83
2023-01-09T14:53:08.269Z,8.27
2023-01-09T14:55:47.628Z,7.13
2023-01-09T14:58:28.058Z,13.90
2023-01-09T15:01:03.411Z,11.43
2023-01-09T15:03:35.861Z,13.30
2023-01-09T15:06:05.343Z,11.30
2023-01-09T15:08:34.639Z,13.07
2023-01-09T15:11:04.089Z,11.87
2023-01-09T15:13:37.559Z,14.77
2023-01-09T15:16:16.021Z,13.33
2023-01-09T15:18:47.352Z,14.90
2023-01-09T15:21:21.710Z,12.80
2023-01-09T15:23:50.444Z,12.57
2023-01-09T15:26:27.874Z,14.80
2023-01-09T15:29:04.593Z,14.80
2023-01-09T15:31:34.771Z,16.37
2023-01-09T15:34:05.811Z,12.67
2023-01-09T15:36:34.719Z,14.17
2023-01-09T15:39:03.520Z,15.23
2023-01-09T15:41:50.428Z,21.07
2023-01-09T15:44:22.564Z,14.43
2023-01-09T15:46:53.548Z,14.10
2023-01-09T15:49:22.738Z,13.03
2023-01-09T15:51:54.647Z,15.83
2023-01-09T15:54:30.022Z,17.67
2023-01-09T15:57:34.196Z,18.40
2023-01-09T16:00:34.713Z,17.20
2023-01-09T16:03:16.431Z,21.67
2023-01-09T16:05:48.276Z,21.77
2023-01-09T16:08:26.713Z,20.10
2023-01-09T16:10:57.840Z,16.53
2023-01-09T16:13:30.218Z,18.07
2023-01-09T16:16:01.433Z,23.80
2023-01-09T16:18:34.717Z,17.60
2023-01-09T16:21:24.143Z,22.77
2023-01-09T16:23:55.340Z,20.23
2023-01-09T16:26:28.636Z,22.67
2023-01-09T16:28:57.762Z,22.20
2023-01-09T16:31:29.656Z,16.63
2023-01-09T16:34:07.244Z,21.43
2023-01-09T16:36:37.743Z,20.87
2023-01-09T16:39:06.771Z,24.97
2023-01-09T16:41:52.736Z,24.13
2023-01-09T16:44:21.481Z,22.63
2023-01-09T16:46:50.425Z,24.87
2023-01-09T16:49:23.676Z,22.73
2023-01-09T16:51:53.011Z,21.07
2023-01-09T16:54:22.398Z,25.00
2023-01-09T16:56:54.551Z,25.17
2023-01-09T16:59:26.132Z,23.93
2023-01-09T17:01:56.060Z,26.23
2023-01-09T17:04:26.513Z,30.53
2023-01-09T17:06:55.397Z,25.43
2023-01-09T17:09:27.522Z,29.57
2023-01-09T17:11:56.807Z,24.73
2023-01-09T17:14:25.655Z,24.17
2023-01-09T17:16:54.352Z,23.80
2023-01-09T17:19:23.683Z,21.67
2023-01-09T17:21:53.761Z,24.43
2023-01-09T17:24:40.166Z,26.17
2023-01-09T17:27:28.443Z,27.13
2023-01-09T17:29:57.424Z,23.53
2023-01-09T17:32:27.557Z,25.10
2023-01-09T17:34:56.138Z,24.70
2023-01-09T17:37:26.227Z,27.07
2023-01-09T17:39:59.978Z,23.87
2023-01-09T17:42:28.916Z,22.37
2023-01-09T17:44:58.484Z,24.23
2023-01-09T17:47:27.520Z,20.67
2023-01-09T17:49:56.486Z,24.07
2023-01-09T17:52:26.864Z,15.70
2023-01-09T17:54:55.605Z,18.27
2023-01-09T17:57:24.443Z,17.33
2023-01-09T17:59:53.336Z,18.10
2023-01-09T18:02:23.381Z,17.20
2023-01-09T18:04:52.169Z,18.40
2023-01-09T18:07:20.839Z,22.20
2023-01-09T18:09:50.971Z,17.13
2023-01-09T18:12:20.977Z,16.70
2023-01-09T18:14:49.716Z,23.27
2023-01-09T18:17:19.445Z,17.37
2023-01-09T18:19:49.429Z,19.27
2023-01-09T18:22:18.493Z,21.13
2023-01-09T18:24:47.383Z,23.47
2023-01-09T18:27:17.840Z,18.77
2023-01-09T18:29:47.892Z,16.93
2023-01-09T18:32:17.239Z,20.90
2023-01-09T18:34:48.754Z,24.27
2023-01-09T18:37:17.589Z,26.33
2023-01-09T18:39:46.547Z,30.83
2023-01-09T18:42:17.314Z,22.23
2023-01-09T18:44:46.423Z,21.53
2023-01-09T18:47:15.424Z,24.43
2023-01-09T18:49:44.483Z,21.47
2023-01-09T18:52:13.980Z,24.70
2023-01-09T18:54:43.310Z,25.83
2023-01-09T18:57:12.669Z,20.47
2023-01-09T18:59:42.907Z,25.90
2023-01-09T19:02:21.419Z,22.80
2023-01-09T19:04:50.220Z,22.37
2023-01-09T19:07:19.600Z,25.23
2023-01-09T19:09:50.824Z,23.37
2023-01-09T19:12:21.348Z,23.50
2023-01-09T19:14:52.575Z,19.87
2023-01-09T19:17:21.428Z,19.30
2023-01-09T19:19:50.504Z,17.47
2023-01-09T19:22:19.857Z,21.30
2023-01-09T19:24:48.736Z,21.93
2023-01-09T19:27:18.025Z,22.43
2023-01-09T19:29:46.899Z,21.03
2023-01-09T19:32:18.203Z,21.53
2023-01-09T19:34:47.141Z,21.87
2023-01-09T19:37:18.519Z,26.47
2023-01-09T19:39:48.011Z,27.53
2023-01-09T19:42:18.501Z,23.07
2023-01-09T19:44:47.716Z,25.80
2023-01-09T19:47:25.859Z,27.20
2023-01-09T19:49:55.547Z,31.70
2023-01-09T19:52:24.627Z,29.77
2023-01-09T19:54:55.992Z,28.73
2023-01-09T19:57:35.439Z,36.47
2023-01-09T20:00:15.811Z,44.90
2023-01-09T20:02:52.022Z,28.43
2023-01-09T20:05:21.186Z,32.77
2023-01-09T20:07:54.395Z,33.67
2023-01-09T20:10:28.273Z,30.17
2023-01-09T20:12:58.939Z,28.37
2023-01-09T20:15:28.567Z,31.07
2023-01-09T20:18:02.503Z,29.33
2023-01-09T20:20:34.591Z,30.87
2023-01-09T20:23:04.565Z,31.93
2023-01-09T20:25:33.843Z,31.13
2023-01-09T20:28:02.985Z,27.03
2023-01-09T20:30:36.279Z,34.30
2023-01-09T20:33:08.242Z,28.27
2023-01-09T20:35:37.225Z,33.60
2023-01-09T20:38:06.251Z,31.03
2023-01-09T20:40:39.753Z,31.33
2023-01-09T20:43:10.650Z,28.13
2023-01-09T20:45:42.645Z,29.10
2023-01-09T20:48:14.784Z,31.17
2023-01-09T20:50:43.907Z,33.83
2023-01-09T20:53:14.217Z,26.97
2023-01-09T20:55:46.368Z,28.03
2023-01-09T20:58:15.054Z,25.60
2023-01-09T21:00:43.826Z,26.47
2023-01-09T21:03:16.990Z,29.30
2023-01-09T21:05:45.659Z,31.23
2023-01-09T21:08:17.557Z,27.90
2023-01-09T21:10:59.549Z,27.23
2023-01-09T21:13:31.760Z,29.17
2023-01-09T21:16:10.025Z,30.90
2023-01-09T21:18:42.311Z,28.57
2023-01-09T21:21:14.916Z,28.07
2023-01-09T21:23:48.166Z,26.57
2023-01-09T21:26:18.175Z,22.80
2023-01-09T21:28:49.487Z,23.27
2023-01-09T21:31:21.808Z,29.50
2023-01-09T21:33:52.462Z,21.60
2023-01-09T21:36:21.849Z,23.53
2023-01-09T21:38:52.367Z,29.60
2023-01-09T21:41:39.702Z,27.53
2023-01-09T21:44:29.827Z,28.83
2023-01-09T21:46:59.988Z,28.47
2023-01-09T21:49:31.629Z,31.73
2023-01-09T21:52:00.560Z,28.43
2023-01-09T21:54:29.264Z,32.47
2023-01-09T21:56:58.062Z,37.63
2023-01-09T21:59:27.364Z,32.73
2023-01-09T22:01:56.388Z,29.80
2023-01-09T22:04:26.817Z,32.23
2023-01-09T22:06:57.642Z,31.67
2023-01-09T22:09:26.953Z,33.10
2023-01-09T22:11:55.698Z,35.23
2023-01-09T22:14:24.521Z,35.40
2023-01-09T22:16:53.253Z,41.03
2023-01-09T22:19:22.246Z,35.00
2023-01-09T22:21:51.294Z,35.53
2023-01-09T22:24:24.707Z,37.77
2023-01-09T22:26:53.565Z,42.03
2023-01-09T22:29:22.577Z,29.90
2023-01-09T22:31:54.211Z,34.90
2023-01-09T22:34:23.518Z,36.43
2023-01-09T22:36:52.133Z,36.00
2023-01-09T22:39:22.528Z,35.00
2023-01-09T22:41:54.593Z,34.27
2023-01-09T22:44:23.640Z,29.90
2023-01-09T22:46:52.317Z,37.53
2023-01-09T22:49:21.057Z,34.57
2023-01-09T22:51:49.877Z,35.70
2023-01-09T22:54:19.461Z,33.73
2023-01-09T22:56:50.958Z,36.50
2023-01-09T22:59:19.611Z,37.17
2023-01-09T23:01:48.514Z,31.37
2023-01-09T23:04:17.327Z,33.17
2023-01-09T23:06:45.852Z,31.10
2023-01-09T23:09:14.536Z,35.70
2023-01-09T23:12:00.854Z,35.90
2023-01-09T23:14:31.271Z,37.57
2023-01-09T23:17:00.006Z,31.27
2023-01-09T23:19:30.632Z,35.10
2023-01-09T23:21:59.790Z,31.93
2023-01-09T23:24:33.424Z,36.37
2023-01-09T23:27:02.969Z,31.10
2023-01-09T23:29:33.204Z,29.70
2023-01-09T23:32:10.011Z,29.03
2023-01-09T23:34:39.625Z,33.67
2023-01-09T23:37:09.820Z,31.13
2023-01-09T23:39:38.600Z,29.13
2023-01-09T23:42:25.099Z,41.87
2023-01-09T23:44:55.154Z,44.50
2023-01-09T23:47:23.913Z,38.30
2023-01-09T23:49:52.487Z,54.23
2023-01-09T23:52:21.030Z,38.27
2023-01-09T23:54:49.843Z,41.13
2023-01-09T23:57:19.214Z,33.30
2023-01-09T23:59:47.765Z,33.70
